sensor_id;sensor_type;location;lat;lon;timestamp;P1;durP1;ratioP1;P2;durP2;ratioP2
62256;SDS011;48240;52.962;5.790;2022-09-30T04:20:14;1.77;;;1.00;;
62256;SDS011;48240;52.962;5.790;2022-09-30T04:22:40;1.23;;;0.90;;
62256;SDS011;48240;52.962;5.790;2022-09-30T04:25:06;1.70;;;1.00;;
62256;SDS011;48240;52.962;5.790;2022-09-30T04:27:33;3.42;;;1.30;;
62256;SDS011;48240;52.962;5.790;2022-09-30T04:29:59;1.40;;;1.00;;
62256;SDS011;48240;52.962;5.790;2022-09-30T04:32:25;1.88;;;0.80;;
62256;SDS011;48240;52.962;5.790;2022-09-30T04:34:52;0.95;;;0.70;;
62256;SDS011;48240;52.962;5.790;2022-09-30T04:37:19;0.68;;;0.68;;
62256;SDS011;48240;52.962;5.790;2022-09-30T04:39:45;1.20;;;0.98;;
62256;SDS011;48240;52.962;5.790;2022-09-30T04:42:11;2.80;;;0.88;;
62256;SDS011;48240;52.962;5.790;2022-09-30T04:44:37;3.42;;;1.00;;
62256;SDS011;48240;52.962;5.790;2022-09-30T04:47:03;1.63;;;1.05;;
62256;SDS011;48240;52.962;5.790;2022-09-30T04:49:30;3.03;;;0.82;;
62256;SDS011;48240;52.962;5.790;2022-09-30T04:51:57;2.95;;;1.00;;
62256;SDS011;48240;52.962;5.790;2022-09-30T04:54:23;1.88;;;1.00;;
62256;SDS011;48240;52.962;5.790;2022-09-30T04:56:49;1.25;;;0.90;;
62256;SDS011;48240;52.962;5.790;2022-09-30T04:59:15;6.22;;;1.25;;
62256;SDS011;48240;52.962;5.790;2022-09-30T05:01:41;1.20;;;1.00;;
62256;SDS011;48240;52.962;5.790;2022-09-30T05:04:08;1.17;;;1.00;;
62256;SDS011;48240;52.962;5.790;2022-09-30T05:06:36;1.63;;;1.00;;
62256;SDS011;48240;52.962;5.790;2022-09-30T05:09:05;1.08;;;0.85;;
62256;SDS011;48240;52.962;5.790;2022-09-30T05:11:31;1.83;;;0.95;;
62256;SDS011;48240;52.962;5.790;2022-09-30T05:13:57;1.30;;;1.10;;
62256;SDS011;48240;52.962;5.790;2022-09-30T05:16:23;1.15;;;0.90;;
62256;SDS011;48240;52.962;5.790;2022-09-30T05:18:51;1.38;;;0.90;;
62256;SDS011;48240;52.962;5.790;2022-09-30T05:21:18;1.60;;;1.02;;
62256;SDS011;48240;52.962;5.790;2022-09-30T05:23:44;2.90;;;0.95;;
62256;SDS011;48240;52.962;5.790;2022-09-30T05:26:10;2.15;;;0.93;;
62256;SDS011;48240;52.962;5.790;2022-09-30T05:28:37;1.80;;;0.70;;
62256;SDS011;48240;52.962;5.790;2022-09-30T05:31:03;2.58;;;0.90;;
62256;SDS011;48240;52.962;5.790;2022-09-30T05:33:30;1.55;;;0.95;;
62256;SDS011;48240;52.962;5.790;2022-09-30T05:36:00;1.33;;;1.00;;
62256;SDS011;48240;52.962;5.790;2022-09-30T05:38:27;1.63;;;1.02;;
62256;SDS011;48240;52.962;5.790;2022-09-30T05:40:53;4.22;;;1.00;;
62256;SDS011;48240;52.962;5.790;2022-09-30T05:43:19;1.73;;;1.00;;
62256;SDS011;48240;52.962;5.790;2022-09-30T05:45:52;1.27;;;1.00;;
62256;SDS011;48240;52.962;5.790;2022-09-30T05:48:19;3.20;;;1.23;;
62256;SDS011;48240;52.962;5.790;2022-09-30T05:50:45;1.58;;;1.00;;
62256;SDS011;48240;52.962;5.790;2022-09-30T05:53:16;3.97;;;1.65;;
62256;SDS011;48240;52.962;5.790;2022-09-30T05:55:45;2.10;;;1.38;;
62256;SDS011;48240;52.962;5.790;2022-09-30T05:58:12;2.92;;;1.33;;
62256;SDS011;48240;52.962;5.790;2022-09-30T06:00:42;2.65;;;1.50;;
62256;SDS011;48240;52.962;5.790;2022-09-30T06:03:09;2.40;;;1.60;;
62256;SDS011;48240;52.962;5.790;2022-09-30T06:05:35;3.53;;;1.70;;
62256;SDS011;48240;52.962;5.790;2022-09-30T06:08:01;3.03;;;2.15;;
62256;SDS011;48240;52.962;5.790;2022-09-30T06:10:28;2.53;;;2.10;;
62256;SDS011;48240;52.962;5.790;2022-09-30T06:12:54;2.80;;;2.00;;
62256;SDS011;48240;52.962;5.790;2022-09-30T06:15:23;2.97;;;2.10;;
62256;SDS011;48240;52.962;5.790;2022-09-30T06:17:52;2.92;;;2.17;;
62256;SDS011;48240;52.962;5.790;2022-09-30T06:20:19;2.30;;;1.95;;
62256;SDS011;48240;52.962;5.790;2022-09-30T06:22:45;2.63;;;2.00;;
62256;SDS011;48240;52.962;5.790;2022-09-30T06:25:11;2.65;;;1.92;;
62256;SDS011;48240;52.962;5.790;2022-09-30T06:27:37;2.28;;;1.70;;
62256;SDS011;48240;52.962;5.790;2022-09-30T06:30:06;2.50;;;2.00;;
62256;SDS011;48240;52.962;5.790;2022-09-30T06:32:33;4.70;;;2.53;;
62256;SDS011;48240;52.962;5.790;2022-09-30T06:34:59;3.78;;;2.10;;
62256;SDS011;48240;52.962;5.790;2022-09-30T06:37:27;3.15;;;1.65;;
62256;SDS011;48240;52.962;5.790;2022-09-30T06:39:53;2.97;;;2.00;;
62256;SDS011;48240;52.962;5.790;2022-09-30T06:42:19;2.25;;;1.90;;
62256;SDS011;48240;52.962;5.790;2022-09-30T06:44:48;3.28;;;2.10;;
62256;SDS011;48240;52.962;5.790;2022-09-30T06:47:15;7.13;;;2.13;;
62256;SDS011;48240;52.962;5.790;2022-09-30T06:49:43;3.17;;;2.05;;
62256;SDS011;48240;52.962;5.790;2022-09-30T06:52:09;3.90;;;2.20;;
62256;SDS011;48240;52.962;5.790;2022-09-30T06:54:39;3.13;;;1.65;;
62256;SDS011;48240;52.962;5.790;2022-09-30T06:57:08;2.30;;;1.80;;
62256;SDS011;48240;52.962;5.790;2022-09-30T06:59:34;2.35;;;1.85;;
62256;SDS011;48240;52.962;5.790;2022-09-30T07:02:00;2.53;;;1.70;;
62256;SDS011;48240;52.962;5.790;2022-09-30T07:04:26;2.05;;;1.70;;
62256;SDS011;48240;52.962;5.790;2022-09-30T07:06:53;3.38;;;1.90;;
62256;SDS011;48240;52.962;5.790;2022-09-30T07:09:19;3.10;;;1.83;;
62256;SDS011;48240;52.962;5.790;2022-09-30T07:11:45;2.55;;;1.65;;
62256;SDS011;48240;52.962;5.790;2022-09-30T07:14:12;2.70;;;1.60;;
62256;SDS011;48240;52.962;5.790;2022-09-30T07:16:38;2.28;;;1.70;;
62256;SDS011;48240;52.962;5.790;2022-09-30T07:19:04;3.25;;;1.52;;
62256;SDS011;48240;52.962;5.790;2022-09-30T07:21:31;1.70;;;1.58;;
62256;SDS011;48240;52.962;5.790;2022-09-30T07:23:57;3.83;;;1.77;;
62256;SDS011;48240;52.962;5.790;2022-09-30T07:26:24;3.22;;;1.48;;
62256;SDS011;48240;52.962;5.790;2022-09-30T07:28:51;2.40;;;1.50;;
62256;SDS011;48240;52.962;5.790;2022-09-30T07:31:18;2.13;;;1.60;;
62256;SDS011;48240;52.962;5.790;2022-09-30T07:33:45;5.68;;;1.50;;
62256;SDS011;48240;52.962;5.790;2022-09-30T07:36:12;2.42;;;1.50;;
62256;SDS011;48240;52.962;5.790;2022-09-30T07:38:40;2.47;;;1.38;;
62256;SDS011;48240;52.962;5.790;2022-09-30T07:41:10;1.92;;;1.40;;
62256;SDS011;48240;52.962;5.790;2022-09-30T07:43:37;2.90;;;1.55;;
62256;SDS011;48240;52.962;5.790;2022-09-30T07:48:33;2.85;;;1.33;;
62256;SDS011;48240;52.962;5.790;2022-09-30T07:53:46;2.13;;;1.35;;
62256;SDS011;48240;52.962;5.790;2022-09-30T07:56:12;2.40;;;1.40;;
62256;SDS011;48240;52.962;5.790;2022-09-30T07:58:39;3.53;;;1.10;;
62256;SDS011;48240;52.962;5.790;2022-09-30T08:01:05;4.30;;;1.40;;
62256;SDS011;48240;52.962;5.790;2022-09-30T08:03:32;2.00;;;1.30;;
62256;SDS011;48240;52.962;5.790;2022-09-30T08:06:08;1.55;;;1.30;;
62256;SDS011;48240;52.962;5.790;2022-09-30T08:08:35;2.08;;;1.13;;
62256;SDS011;48240;52.962;5.790;2022-09-30T08:11:02;1.90;;;1.23;;
62256;SDS011;48240;52.962;5.790;2022-09-30T08:13:28;4.32;;;1.52;;
62256;SDS011;48240;52.962;5.790;2022-09-30T08:15:54;4.43;;;1.67;;
62256;SDS011;48240;52.962;5.790;2022-09-30T08:18:20;1.98;;;1.30;;
62256;SDS011;48240;52.962;5.790;2022-09-30T08:20:47;2.22;;;1.40;;
62256;SDS011;48240;52.962;5.790;2022-09-30T08:23:13;1.48;;;1.23;;
62256;SDS011;48240;52.962;5.790;2022-09-30T08:25:39;1.73;;;1.27;;
62256;SDS011;48240;52.962;5.790;2022-09-30T08:28:05;3.30;;;1.20;;
62256;SDS011;48240;52.962;5.790;2022-09-30T08:30:33;4.63;;;1.50;;
62256;SDS011;48240;52.962;5.790;2022-09-30T08:32:59;3.85;;;1.52;;
62256;SDS011;48240;52.962;5.790;2022-09-30T08:35:25;2.85;;;1.45;;
62256;SDS011;48240;52.962;5.790;2022-09-30T08:37:51;2.53;;;1.48;;
62256;SDS011;48240;52.962;5.790;2022-09-30T08:40:29;5.18;;;1.80;;
62256;SDS011;48240;52.962;5.790;2022-09-30T08:43:14;2.65;;;1.77;;
62256;SDS011;48240;52.962;5.790;2022-09-30T08:53:31;3.67;;;1.60;;
62256;SDS011;48240;52.962;5.790;2022-09-30T08:55:57;6.95;;;1.63;;
62256;SDS011;48240;52.962;5.790;2022-09-30T08:58:34;5.03;;;2.13;;
62256;SDS011;48240;52.962;5.790;2022-09-30T09:01:22;4.88;;;2.53;;
62256;SDS011;48240;52.962;5.790;2022-09-30T09:03:50;3.83;;;1.83;;
62256;SDS011;48240;52.962;5.790;2022-09-30T09:12:06;3.28;;;2.17;;
62256;SDS011;48240;52.962;5.790;2022-09-30T09:14:48;6.03;;;1.63;;
62256;SDS011;48240;52.962;5.790;2022-09-30T09:19:52;3.35;;;1.60;;
62256;SDS011;48240;52.962;5.790;2022-09-30T09:22:22;1.52;;;1.42;;
62256;SDS011;48240;52.962;5.790;2022-09-30T09:24:49;2.72;;;1.95;;
62256;SDS011;48240;52.962;5.790;2022-09-30T09:32:18;2.45;;;1.40;;
62256;SDS011;48240;52.962;5.790;2022-09-30T09:34:49;3.38;;;1.70;;
62256;SDS011;48240;52.962;5.790;2022-09-30T09:40:11;1.95;;;1.55;;
62256;SDS011;48240;52.962;5.790;2022-09-30T09:42:55;2.25;;;1.45;;
62256;SDS011;48240;52.962;5.790;2022-09-30T09:45:45;3.22;;;1.52;;
62256;SDS011;48240;52.962;5.790;2022-09-30T09:48:14;5.35;;;1.90;;
62256;SDS011;48240;52.962;5.790;2022-09-30T09:55:53;3.72;;;1.50;;
62256;SDS011;48240;52.962;5.790;2022-09-30T09:58:23;1.67;;;1.10;;
62256;SDS011;48240;52.962;5.790;2022-09-30T10:00:49;2.75;;;1.30;;
62256;SDS011;48240;52.962;5.790;2022-09-30T10:03:22;1.90;;;1.20;;
62256;SDS011;48240;52.962;5.790;2022-09-30T10:08:32;1.67;;;1.00;;
62256;SDS011;48240;52.962;5.790;2022-09-30T10:11:02;2.22;;;1.10;;
62256;SDS011;48240;52.962;5.790;2022-09-30T10:13:29;2.70;;;1.15;;
62256;SDS011;48240;52.962;5.790;2022-09-30T10:15:57;1.77;;;1.00;;
62256;SDS011;48240;52.962;5.790;2022-09-30T10:18:27;4.38;;;1.20;;
62256;SDS011;48240;52.962;5.790;2022-09-30T10:20:57;1.20;;;1.00;;
62256;SDS011;48240;52.962;5.790;2022-09-30T10:23:28;1.30;;;0.90;;
62256;SDS011;48240;52.962;5.790;2022-09-30T10:25:59;2.17;;;1.00;;
62256;SDS011;48240;52.962;5.790;2022-09-30T10:28:29;1.48;;;0.73;;
62256;SDS011;48240;52.962;5.790;2022-09-30T10:33:26;2.67;;;1.02;;
62256;SDS011;48240;52.962;5.790;2022-09-30T10:35:54;2.95;;;0.90;;
62256;SDS011;48240;52.962;5.790;2022-09-30T10:38:22;1.38;;;1.02;;
62256;SDS011;48240;52.962;5.790;2022-09-30T10:40:49;1.10;;;0.80;;
62256;SDS011;48240;52.962;5.790;2022-09-30T10:43:38;1.05;;;0.80;;
62256;SDS011;48240;52.962;5.790;2022-09-30T10:46:02;3.95;;;0.90;;
62256;SDS011;48240;52.962;5.790;2022-09-30T10:48:30;1.25;;;0.90;;
62256;SDS011;48240;52.962;5.790;2022-09-30T10:50:57;1.23;;;0.80;;
62256;SDS011;48240;52.962;5.790;2022-09-30T10:53:25;1.83;;;0.70;;
62256;SDS011;48240;52.962;5.790;2022-09-30T10:55:54;1.30;;;0.90;;
62256;SDS011;48240;52.962;5.790;2022-09-30T11:00:55;0.90;;;0.80;;
62256;SDS011;48240;52.962;5.790;2022-09-30T11:06:07;0.70;;;0.60;;
62256;SDS011;48240;52.962;5.790;2022-09-30T11:08:54;1.00;;;0.70;;
62256;SDS011;48240;52.962;5.790;2022-09-30T11:11:26;0.80;;;0.70;;
62256;SDS011;48240;52.962;5.790;2022-09-30T11:13:54;0.88;;;0.70;;
62256;SDS011;48240;52.962;5.790;2022-09-30T11:21:42;0.88;;;0.60;;
62256;SDS011;48240;52.962;5.790;2022-09-30T11:29:27;1.52;;;0.70;;
62256;SDS011;48240;52.962;5.790;2022-09-30T11:39:58;0.80;;;0.60;;
62256;SDS011;48240;52.962;5.790;2022-09-30T11:42:35;1.33;;;0.50;;
62256;SDS011;48240;52.962;5.790;2022-09-30T11:47:56;1.00;;;0.60;;
62256;SDS011;48240;52.962;5.790;2022-09-30T12:06:34;1.88;;;0.73;;
62256;SDS011;48240;52.962;5.790;2022-09-30T12:09:11;0.85;;;0.50;;
62256;SDS011;48240;52.962;5.790;2022-09-30T12:14:11;0.65;;;0.65;;
62256;SDS011;48240;52.962;5.790;2022-09-30T12:16:38;0.50;;;0.47;;
62256;SDS011;48240;52.962;5.790;2022-09-30T12:19:15;0.82;;;0.40;;
62256;SDS011;48240;52.962;5.790;2022-09-30T12:26:57;0.55;;;0.50;;
62256;SDS011;48240;52.962;5.790;2022-09-30T12:29:34;0.82;;;0.60;;
62256;SDS011;48240;52.962;5.790;2022-09-30T12:47:58;1.05;;;0.50;;
62256;SDS011;48240;52.962;5.790;2022-09-30T12:50:28;0.45;;;0.40;;
62256;SDS011;48240;52.962;5.790;2022-09-30T12:52:58;0.52;;;0.52;;
62256;SDS011;48240;52.962;5.790;2022-09-30T12:55:38;0.65;;;0.45;;
62256;SDS011;48240;52.962;5.790;2022-09-30T12:58:06;0.80;;;0.60;;
62256;SDS011;48240;52.962;5.790;2022-09-30T13:00:39;0.90;;;0.45;;
62256;SDS011;48240;52.962;5.790;2022-09-30T13:03:13;1.10;;;0.73;;
62256;SDS011;48240;52.962;5.790;2022-09-30T13:10:43;0.50;;;0.50;;
62256;SDS011;48240;52.962;5.790;2022-09-30T13:25:59;1.48;;;0.60;;
62256;SDS011;48240;52.962;5.790;2022-09-30T13:28:28;0.75;;;0.50;;
62256;SDS011;48240;52.962;5.790;2022-09-30T13:31:10;0.73;;;0.47;;
62256;SDS011;48240;52.962;5.790;2022-09-30T13:33:43;0.47;;;0.47;;
62256;SDS011;48240;52.962;5.790;2022-09-30T13:36:17;0.40;;;0.40;;
62256;SDS011;48240;52.962;5.790;2022-09-30T13:38:44;1.08;;;0.50;;
62256;SDS011;48240;52.962;5.790;2022-09-30T13:41:15;0.52;;;0.40;;
62256;SDS011;48240;52.962;5.790;2022-09-30T13:48:42;1.42;;;0.60;;
62256;SDS011;48240;52.962;5.790;2022-09-30T13:51:11;1.08;;;0.45;;
62256;SDS011;48240;52.962;5.790;2022-09-30T13:56:21;1.92;;;0.40;;
62256;SDS011;48240;52.962;5.790;2022-09-30T14:17:04;0.50;;;0.40;;
62256;SDS011;48240;52.962;5.790;2022-09-30T14:22:04;0.93;;;0.45;;
62256;SDS011;48240;52.962;5.790;2022-09-30T14:24:34;0.45;;;0.40;;
62256;SDS011;48240;52.962;5.790;2022-09-30T14:31:59;1.00;;;0.52;;
62256;SDS011;48240;52.962;5.790;2022-09-30T14:34:26;0.60;;;0.50;;
62256;SDS011;48240;52.962;5.790;2022-09-30T14:36:53;0.88;;;0.50;;
62256;SDS011;48240;52.962;5.790;2022-09-30T14:39:22;0.90;;;0.40;;
62256;SDS011;48240;52.962;5.790;2022-09-30T14:41:54;2.03;;;0.52;;
62256;SDS011;48240;52.962;5.790;2022-09-30T14:44:22;2.08;;;0.50;;
62256;SDS011;48240;52.962;5.790;2022-09-30T14:46:48;1.38;;;0.70;;
62256;SDS011;48240;52.962;5.790;2022-09-30T14:49:18;2.22;;;0.57;;
62256;SDS011;48240;52.962;5.790;2022-09-30T14:51:48;2.03;;;0.70;;
62256;SDS011;48240;52.962;5.790;2022-09-30T14:56:44;1.80;;;0.60;;
62256;SDS011;48240;52.962;5.790;2022-09-30T14:59:14;0.77;;;0.60;;
62256;SDS011;48240;52.962;5.790;2022-09-30T15:01:40;0.68;;;0.40;;
62256;SDS011;48240;52.962;5.790;2022-09-30T15:04:09;2.25;;;0.82;;
62256;SDS011;48240;52.962;5.790;2022-09-30T15:06:37;2.22;;;0.77;;
62256;SDS011;48240;52.962;5.790;2022-09-30T15:11:50;4.82;;;1.70;;
62256;SDS011;48240;52.962;5.790;2022-09-30T15:14:17;2.58;;;1.52;;
62256;SDS011;48240;52.962;5.790;2022-09-30T15:16:48;4.20;;;3.03;;
62256;SDS011;48240;52.962;5.790;2022-09-30T15:19:25;4.70;;;3.03;;
62256;SDS011;48240;52.962;5.790;2022-09-30T15:22:01;7.93;;;5.63;;
62256;SDS011;48240;52.962;5.790;2022-09-30T15:24:28;9.07;;;6.13;;
62256;SDS011;48240;52.962;5.790;2022-09-30T15:26:55;8.45;;;6.10;;
62256;SDS011;48240;52.962;5.790;2022-09-30T15:29:22;10.73;;;6.80;;
62256;SDS011;48240;52.962;5.790;2022-09-30T15:31:48;11.98;;;7.40;;
62256;SDS011;48240;52.962;5.790;2022-09-30T15:34:18;13.35;;;7.60;;
62256;SDS011;48240;52.962;5.790;2022-09-30T15:36:46;15.93;;;10.75;;
62256;SDS011;48240;52.962;5.790;2022-09-30T15:39:19;18.20;;;11.18;;
62256;SDS011;48240;52.962;5.790;2022-09-30T15:41:46;21.42;;;13.50;;
62256;SDS011;48240;52.962;5.790;2022-09-30T15:44:17;27.13;;;16.40;;
62256;SDS011;48240;52.962;5.790;2022-09-30T15:47:05;24.38;;;17.40;;
62256;SDS011;48240;52.962;5.790;2022-09-30T15:54:47;36.72;;;22.02;;
62256;SDS011;48240;52.962;5.790;2022-09-30T15:59:59;37.42;;;23.80;;
62256;SDS011;48240;52.962;5.790;2022-09-30T16:02:26;35.55;;;23.50;;
62256;SDS011;48240;52.962;5.790;2022-09-30T16:04:53;48.20;;;26.90;;
62256;SDS011;48240;52.962;5.790;2022-09-30T16:07:19;53.58;;;26.58;;
62256;SDS011;48240;52.962;5.790;2022-09-30T16:09:52;46.80;;;25.90;;
62256;SDS011;48240;52.962;5.790;2022-09-30T16:12:20;44.00;;;25.98;;
62256;SDS011;48240;52.962;5.790;2022-09-30T16:14:52;41.05;;;26.92;;
62256;SDS011;48240;52.962;5.790;2022-09-30T16:17:25;46.95;;;26.20;;
62256;SDS011;48240;52.962;5.790;2022-09-30T16:19:56;42.47;;;25.15;;
62256;SDS011;48240;52.962;5.790;2022-09-30T16:22:47;40.88;;;26.38;;
62256;SDS011;48240;52.962;5.790;2022-09-30T16:25:24;44.60;;;24.85;;
62256;SDS011;48240;52.962;5.790;2022-09-30T16:27:54;41.90;;;24.95;;
62256;SDS011;48240;52.962;5.790;2022-09-30T16:30:21;42.42;;;23.75;;
62256;SDS011;48240;52.962;5.790;2022-09-30T16:32:51;36.45;;;23.20;;
62256;SDS011;48240;52.962;5.790;2022-09-30T16:35:19;38.13;;;22.65;;
62256;SDS011;48240;52.962;5.790;2022-09-30T16:37:45;36.13;;;21.85;;
62256;SDS011;48240;52.962;5.790;2022-09-30T16:40:20;35.60;;;21.65;;
62256;SDS011;48240;52.962;5.790;2022-09-30T16:42:47;35.00;;;21.02;;
62256;SDS011;48240;52.962;5.790;2022-09-30T16:45:14;30.42;;;19.80;;
62256;SDS011;48240;52.962;5.790;2022-09-30T16:47:41;39.45;;;20.77;;
62256;SDS011;48240;52.962;5.790;2022-09-30T16:50:18;29.73;;;18.67;;
62256;SDS011;48240;52.962;5.790;2022-09-30T16:52:45;30.02;;;18.95;;
62256;SDS011;48240;52.962;5.790;2022-09-30T16:55:11;30.67;;;19.55;;
62256;SDS011;48240;52.962;5.790;2022-09-30T16:57:38;31.13;;;18.20;;
62256;SDS011;48240;52.962;5.790;2022-09-30T17:00:05;27.50;;;17.02;;
62256;SDS011;48240;52.962;5.790;2022-09-30T17:02:31;28.88;;;16.27;;
62256;SDS011;48240;52.962;5.790;2022-09-30T17:04:57;33.20;;;17.05;;
62256;SDS011;48240;52.962;5.790;2022-09-30T17:07:23;22.98;;;15.75;;
62256;SDS011;48240;52.962;5.790;2022-09-30T17:09:50;26.10;;;14.30;;
62256;SDS011;48240;52.962;5.790;2022-09-30T17:12:16;25.80;;;15.77;;
62256;SDS011;48240;52.962;5.790;2022-09-30T17:14:42;24.95;;;14.65;;
62256;SDS011;48240;52.962;5.790;2022-09-30T17:17:09;25.27;;;14.07;;
62256;SDS011;48240;52.962;5.790;2022-09-30T17:19:35;26.10;;;14.75;;
62256;SDS011;48240;52.962;5.790;2022-09-30T17:22:02;22.73;;;13.90;;
62256;SDS011;48240;52.962;5.790;2022-09-30T17:24:29;25.60;;;13.48;;
62256;SDS011;48240;52.962;5.790;2022-09-30T17:26:55;23.38;;;13.95;;
62256;SDS011;48240;52.962;5.790;2022-09-30T17:29:22;27.65;;;13.27;;
62256;SDS011;48240;52.962;5.790;2022-09-30T17:31:48;25.98;;;13.30;;
62256;SDS011;48240;52.962;5.790;2022-09-30T17:34:14;26.02;;;14.10;;
62256;SDS011;48240;52.962;5.790;2022-09-30T17:36:40;26.25;;;13.65;;
62256;SDS011;48240;52.962;5.790;2022-09-30T17:39:06;28.40;;;14.23;;
62256;SDS011;48240;52.962;5.790;2022-09-30T17:41:34;28.20;;;14.77;;
62256;SDS011;48240;52.962;5.790;2022-09-30T17:44:29;28.92;;;15.43;;
62256;SDS011;48240;52.962;5.790;2022-09-30T17:46:56;26.27;;;14.32;;
62256;SDS011;48240;52.962;5.790;2022-09-30T17:49:29;28.67;;;13.90;;
62256;SDS011;48240;52.962;5.790;2022-09-30T17:51:56;26.02;;;13.98;;
62256;SDS011;48240;52.962;5.790;2022-09-30T17:54:23;20.90;;;13.35;;
62256;SDS011;48240;52.962;5.790;2022-09-30T17:56:49;21.13;;;12.80;;
62256;SDS011;48240;52.962;5.790;2022-09-30T17:59:15;22.35;;;12.93;;
62256;SDS011;48240;52.962;5.790;2022-09-30T18:01:46;28.42;;;13.32;;
62256;SDS011;48240;52.962;5.790;2022-09-30T18:04:14;20.15;;;11.93;;
62256;SDS011;48240;52.962;5.790;2022-09-30T18:06:41;21.00;;;12.63;;
62256;SDS011;48240;52.962;5.790;2022-09-30T18:09:07;19.35;;;10.85;;
62256;SDS011;48240;52.962;5.790;2022-09-30T18:11:33;25.27;;;11.63;;
62256;SDS011;48240;52.962;5.790;2022-09-30T18:13:59;21.45;;;12.02;;
62256;SDS011;48240;52.962;5.790;2022-09-30T18:16:26;16.17;;;11.20;;
62256;SDS011;48240;52.962;5.790;2022-09-30T18:18:58;18.02;;;10.13;;
62256;SDS011;48240;52.962;5.790;2022-09-30T18:21:24;20.90;;;10.15;;
62256;SDS011;48240;52.962;5.790;2022-09-30T18:23:51;25.17;;;10.55;;
62256;SDS011;48240;52.962;5.790;2022-09-30T18:26:17;17.63;;;9.68;;
62256;SDS011;48240;52.962;5.790;2022-09-30T18:28:43;16.92;;;9.85;;
62256;SDS011;48240;52.962;5.790;2022-09-30T18:31:10;21.15;;;9.90;;
62256;SDS011;48240;52.962;5.790;2022-09-30T18:33:42;20.80;;;9.93;;
62256;SDS011;48240;52.962;5.790;2022-09-30T18:36:08;17.13;;;8.95;;
62256;SDS011;48240;52.962;5.790;2022-09-30T18:38:34;13.77;;;8.40;;
62256;SDS011;48240;52.962;5.790;2022-09-30T18:41:00;16.33;;;9.25;;
62256;SDS011;48240;52.962;5.790;2022-09-30T18:43:26;14.07;;;8.93;;
62256;SDS011;48240;52.962;5.790;2022-09-30T18:45:53;14.07;;;8.63;;
62256;SDS011;48240;52.962;5.790;2022-09-30T18:48:21;14.68;;;9.35;;
62256;SDS011;48240;52.962;5.790;2022-09-30T18:50:47;12.80;;;8.13;;
62256;SDS011;48240;52.962;5.790;2022-09-30T18:53:16;11.77;;;7.85;;
62256;SDS011;48240;52.962;5.790;2022-09-30T18:55:42;17.25;;;8.25;;
62256;SDS011;48240;52.962;5.790;2022-09-30T18:58:08;12.50;;;7.53;;
62256;SDS011;48240;52.962;5.790;2022-09-30T19:00:34;14.48;;;7.85;;
62256;SDS011;48240;52.962;5.790;2022-09-30T19:03:01;11.85;;;7.20;;
62256;SDS011;48240;52.962;5.790;2022-09-30T19:05:27;12.52;;;7.38;;
62256;SDS011;48240;52.962;5.790;2022-09-30T19:07:53;13.48;;;7.25;;
62256;SDS011;48240;52.962;5.790;2022-09-30T19:10:20;10.25;;;6.78;;
62256;SDS011;48240;52.962;5.790;2022-09-30T19:12:46;9.75;;;6.40;;
62256;SDS011;48240;52.962;5.790;2022-09-30T19:15:13;9.93;;;6.32;;
62256;SDS011;48240;52.962;5.790;2022-09-30T19:17:40;14.27;;;6.90;;
62256;SDS011;48240;52.962;5.790;2022-09-30T19:20:07;13.63;;;6.30;;
62256;SDS011;48240;52.962;5.790;2022-09-30T19:22:33;11.70;;;6.07;;
62256;SDS011;48240;52.962;5.790;2022-09-30T19:25:02;10.52;;;6.28;;
62256;SDS011;48240;52.962;5.790;2022-09-30T19:27:28;11.18;;;6.28;;
62256;SDS011;48240;52.962;5.790;2022-09-30T19:29:54;19.88;;;6.20;;
62256;SDS011;48240;52.962;5.790;2022-09-30T19:32:21;9.80;;;5.80;;
62256;SDS011;48240;52.962;5.790;2022-09-30T19:34:47;9.85;;;5.80;;
62256;SDS011;48240;52.962;5.790;2022-09-30T19:37:15;10.52;;;5.43;;
62256;SDS011;48240;52.962;5.790;2022-09-30T19:39:41;11.82;;;5.88;;
62256;SDS011;48240;52.962;5.790;2022-09-30T19:42:07;13.73;;;6.28;;
62256;SDS011;48240;52.962;5.790;2022-09-30T19:44:34;12.88;;;5.63;;
62256;SDS011;48240;52.962;5.790;2022-09-30T19:47:02;12.63;;;5.97;;
62256;SDS011;48240;52.962;5.790;2022-09-30T19:49:28;15.05;;;6.78;;
62256;SDS011;48240;52.962;5.790;2022-09-30T19:51:55;13.73;;;6.10;;
62256;SDS011;48240;52.962;5.790;2022-09-30T19:54:21;12.80;;;6.50;;
62256;SDS011;48240;52.962;5.790;2022-09-30T19:56:48;16.10;;;6.65;;
62256;SDS011;48240;52.962;5.790;2022-09-30T19:59:15;16.67;;;6.80;;
62256;SDS011;48240;52.962;5.790;2022-09-30T20:01:41;15.70;;;5.78;;
62256;SDS011;48240;52.962;5.790;2022-09-30T20:04:07;14.77;;;5.80;;
62256;SDS011;48240;52.962;5.790;2022-09-30T20:06:34;20.35;;;5.85;;
62256;SDS011;48240;52.962;5.790;2022-09-30T20:09:01;15.30;;;5.80;;
62256;SDS011;48240;52.962;5.790;2022-09-30T20:11:29;12.63;;;5.68;;
62256;SDS011;48240;52.962;5.790;2022-09-30T20:16:44;19.13;;;5.32;;
62256;SDS011;48240;52.962;5.790;2022-09-30T20:19:13;9.70;;;5.10;;
62256;SDS011;48240;52.962;5.790;2022-09-30T20:21:39;11.80;;;5.70;;
62256;SDS011;48240;52.962;5.790;2022-09-30T20:24:09;12.25;;;5.15;;
62256;SDS011;48240;52.962;5.790;2022-09-30T20:26:35;8.63;;;5.00;;
62256;SDS011;48240;52.962;5.790;2022-09-30T20:29:01;11.85;;;4.90;;
62256;SDS011;48240;52.962;5.790;2022-09-30T20:31:28;11.75;;;5.25;;
62256;SDS011;48240;52.962;5.790;2022-09-30T20:33:54;10.95;;;4.97;;
62256;SDS011;48240;52.962;5.790;2022-09-30T20:36:21;11.73;;;4.78;;
62256;SDS011;48240;52.962;5.790;2022-09-30T20:38:54;9.18;;;4.35;;
62256;SDS011;48240;52.962;5.790;2022-09-30T20:41:24;10.57;;;4.28;;
62256;SDS011;48240;52.962;5.790;2022-09-30T20:43:50;11.30;;;4.80;;
62256;SDS011;48240;52.962;5.790;2022-09-30T20:46:17;9.93;;;4.68;;
62256;SDS011;48240;52.962;5.790;2022-09-30T20:48:43;8.00;;;4.10;;
62256;SDS011;48240;52.962;5.790;2022-09-30T20:51:10;8.02;;;4.10;;
62256;SDS011;48240;52.962;5.790;2022-09-30T20:53:36;11.23;;;4.38;;
62256;SDS011;48240;52.962;5.790;2022-09-30T20:56:08;11.50;;;4.28;;
62256;SDS011;48240;52.962;5.790;2022-09-30T20:58:34;6.75;;;3.72;;
62256;SDS011;48240;52.962;5.790;2022-09-30T21:01:05;6.10;;;3.90;;
62256;SDS011;48240;52.962;5.790;2022-09-30T21:03:33;6.28;;;3.67;;
62256;SDS011;48240;52.962;5.790;2022-09-30T21:06:00;7.35;;;3.42;;
62256;SDS011;48240;52.962;5.790;2022-09-30T21:08:26;6.85;;;3.53;;
62256;SDS011;48240;52.962;5.790;2022-09-30T21:10:53;4.25;;;3.03;;
62256;SDS011;48240;52.962;5.790;2022-09-30T21:13:20;6.95;;;3.33;;
62256;SDS011;48240;52.962;5.790;2022-09-30T21:15:46;6.35;;;3.30;;
62256;SDS011;48240;52.962;5.790;2022-09-30T21:18:12;6.05;;;3.30;;
62256;SDS011;48240;52.962;5.790;2022-09-30T21:20:38;10.05;;;3.40;;
62256;SDS011;48240;52.962;5.790;2022-09-30T21:23:04;9.93;;;3.10;;
62256;SDS011;48240;52.962;5.790;2022-09-30T21:25:30;5.25;;;3.15;;
62256;SDS011;48240;52.962;5.790;2022-09-30T21:27:56;4.88;;;2.75;;
62256;SDS011;48240;52.962;5.790;2022-09-30T21:30:22;4.10;;;3.00;;
62256;SDS011;48240;52.962;5.790;2022-09-30T21:32:49;4.40;;;2.80;;
62256;SDS011;48240;52.962;5.790;2022-09-30T21:35:15;6.55;;;2.80;;
62256;SDS011;48240;52.962;5.790;2022-09-30T21:37:41;7.68;;;2.70;;
62256;SDS011;48240;52.962;5.790;2022-09-30T21:40:07;5.30;;;2.60;;
62256;SDS011;48240;52.962;5.790;2022-09-30T21:42:34;7.93;;;2.78;;
62256;SDS011;48240;52.962;5.790;2022-09-30T21:45:01;3.95;;;2.50;;
62256;SDS011;48240;52.962;5.790;2022-09-30T21:47:27;7.32;;;3.25;;
62256;SDS011;48240;52.962;5.790;2022-09-30T21:49:53;5.35;;;2.72;;
62256;SDS011;48240;52.962;5.790;2022-09-30T21:52:19;6.95;;;2.83;;
62256;SDS011;48240;52.962;5.790;2022-09-30T21:54:47;4.53;;;2.53;;
62256;SDS011;48240;52.962;5.790;2022-09-30T21:57:14;6.00;;;2.45;;
62256;SDS011;48240;52.962;5.790;2022-09-30T21:59:40;4.72;;;2.67;;